createdAt,value
2022-11-01T00:03:26.497Z,3.92
2022-11-01T00:13:27.934Z,3.80
2022-11-01T00:23:29.456Z,4.20
2022-11-01T00:33:31.208Z,4.57
2022-11-01T00:43:36.375Z,4.20
2022-11-01T01:03:39.487Z,4.10
2022-11-01T01:13:40.920Z,4.38
2022-11-01T01:23:43.481Z,3.95
2022-11-01T01:33:45.989Z,3.67
2022-11-01T01:43:47.520Z,4.07
2022-11-01T01:53:52.101Z,4.00
2022-11-01T02:03:53.660Z,3.67
2022-11-01T02:13:56.185Z,4.15
2022-11-01T02:24:35.341Z,4.50
2022-11-01T02:34:39.536Z,3.90
2022-11-01T02:44:45.133Z,4.07
2022-11-01T02:54:52.472Z,4.00
2022-11-01T03:04:53.969Z,4.10
2022-11-01T03:15:03.641Z,3.83
2022-11-01T03:25:38.973Z,3.53
2022-11-01T03:35:41.932Z,3.70
2022-11-01T03:45:43.866Z,3.45
2022-11-01T03:55:45.764Z,3.15
2022-11-01T04:05:47.396Z,3.47
2022-11-01T04:16:07.409Z,2.97
2022-11-01T04:26:12.103Z,3.00
2022-11-01T04:36:13.480Z,3.23
2022-11-01T04:46:15.736Z,3.22
2022-11-01T04:56:17.216Z,2.78
2022-11-01T05:06:18.663Z,2.70
2022-11-01T05:16:21.131Z,3.05
2022-11-01T05:26:22.764Z,3.20
2022-11-01T05:36:24.242Z,3.10
2022-11-01T05:46:25.731Z,2.90
2022-11-01T05:56:27.163Z,2.75
2022-11-01T06:06:29.837Z,2.30
2022-11-01T06:16:31.281Z,3.17
2022-11-01T06:26:32.749Z,2.20
2022-11-01T06:36:34.132Z,2.75
2022-11-01T06:46:35.520Z,2.70
2022-11-01T06:56:37.170Z,2.20
2022-11-01T07:06:38.561Z,2.00
2022-11-01T07:16:40.031Z,2.03
2022-11-01T07:26:41.486Z,1.98
2022-11-01T07:36:42.980Z,1.75
2022-11-01T07:46:44.420Z,1.80
2022-11-01T07:56:45.869Z,1.73
2022-11-01T08:06:49.742Z,1.60
2022-11-01T08:16:55.813Z,1.25
2022-11-01T08:26:57.199Z,1.58
2022-11-01T08:36:58.952Z,1.20
2022-11-01T08:47:01.618Z,1.50
2022-11-01T08:57:03.364Z,1.52
2022-11-01T09:07:04.896Z,1.40
2022-11-01T09:17:06.341Z,1.58
2022-11-01T09:27:09.557Z,1.35
2022-11-01T09:37:10.935Z,1.67
2022-11-01T09:47:18.784Z,1.15
2022-11-01T09:57:43.160Z,1.50
2022-11-01T10:08:06.050Z,1.20
2022-11-01T10:18:20.748Z,1.85
2022-11-01T10:29:12.601Z,1.33
2022-11-01T10:39:56.195Z,1.30
2022-11-01T10:50:07.538Z,1.45
2022-11-01T11:00:19.218Z,1.35
2022-11-01T11:10:28.893Z,1.42
2022-11-01T11:20:30.510Z,1.20
2022-11-01T11:30:33.615Z,1.40
2022-11-01T11:40:40.846Z,1.02
2022-11-01T11:50:43.146Z,1.60
2022-11-01T12:00:48.912Z,1.20
2022-11-01T12:10:57.045Z,1.38
2022-11-01T12:20:58.433Z,1.00
2022-11-01T12:31:05.259Z,1.30
2022-11-01T12:41:12.901Z,1.55
2022-11-01T12:51:27.381Z,1.20
2022-11-01T13:01:40.497Z,0.80
2022-11-01T13:11:51.254Z,1.27
2022-11-01T13:22:03.330Z,1.15
2022-11-01T13:32:13.642Z,1.15
2022-11-01T13:42:17.474Z,0.93
2022-11-01T13:52:22.028Z,1.30
2022-11-01T14:02:23.749Z,0.73
2022-11-01T14:12:31.141Z,1.00
2022-11-01T14:22:33.577Z,0.90
2022-11-01T14:32:35.027Z,0.90
2022-11-01T14:42:42.896Z,1.27
2022-11-01T14:52:50.928Z,1.17
2022-11-01T15:02:52.603Z,1.10
2022-11-01T15:13:00.469Z,0.85
2022-11-01T15:23:03.982Z,0.93
2022-11-01T15:33:19.419Z,0.80
2022-11-01T15:43:23.185Z,1.08
2022-11-01T15:53:27.585Z,0.82
2022-11-01T16:03:35.968Z,0.70
2022-11-01T16:13:37.457Z,1.27
2022-11-01T16:23:49.761Z,0.90
2022-11-01T16:33:51.999Z,1.10
2022-11-01T16:43:55.768Z,0.95
2022-11-01T16:54:00.238Z,0.90
2022-11-01T17:04:02.215Z,0.80
2022-11-01T17:14:03.676Z,0.80
2022-11-01T17:24:05.315Z,1.20
2022-11-01T17:34:06.759Z,1.23
2022-11-01T17:44:11.295Z,1.40
2022-11-01T17:54:12.782Z,1.10
2022-11-01T18:04:14.426Z,0.75
2022-11-01T18:14:20.504Z,0.88
2022-11-01T18:24:46.472Z,0.80
2022-11-01T18:34:54.853Z,0.65
2022-11-01T18:44:58.385Z,0.93
2022-11-01T18:54:59.826Z,0.80
2022-11-01T19:05:18.331Z,0.82
2022-11-01T19:15:28.524Z,0.95
2022-11-01T19:25:35.970Z,0.85
2022-11-01T19:35:37.705Z,0.80
2022-11-01T19:45:47.131Z,0.80
2022-11-01T19:55:52.749Z,0.80
2022-11-01T20:05:54.500Z,0.98
2022-11-01T20:15:56.093Z,0.60
2022-11-01T20:25:58.236Z,1.02
2022-11-01T20:35:59.657Z,1.00
2022-11-01T20:46:01.358Z,0.88
2022-11-01T20:56:03.796Z,0.93
2022-11-01T21:06:15.124Z,1.02
2022-11-01T21:16:22.747Z,0.90
2022-11-01T21:26:28.632Z,0.85
2022-11-01T21:36:34.415Z,0.80
2022-11-01T21:46:37.194Z,0.65
2022-11-01T21:56:38.631Z,1.30
2022-11-01T22:06:41.193Z,1.00
2022-11-01T22:16:42.585Z,0.80
2022-11-01T22:26:44.079Z,1.00
2022-11-01T22:36:45.463Z,1.10
2022-11-01T22:46:46.926Z,0.73
2022-11-01T22:57:15.735Z,1.15
2022-11-01T23:07:24.880Z,0.70
2022-11-01T23:17:28.912Z,0.75
2022-11-01T23:27:30.513Z,0.88
2022-11-01T23:37:31.983Z,0.80
2022-11-01T23:47:37.886Z,1.13
2022-11-01T23:57:39.304Z,0.80
